Anchor, Texas
Current Conditions -  °F | °C
As of 11:53 AM on Saturday 25 Oct 2014 (Local Time) from KLBX Reporting Station
Clear Clear  
Wind Chill: 25°   Ceiling: Unl
Heat Index: 26°   Visibility: 10mi
Dew Point: 14°   Wind: 6mph
Humidity: 50%   Direction: 120°ESE
Pressure: 30.18"   Gusts: NA
Location:  29.1898°N, 95.4754°W
Report Text: KLBX 251653Z AUTO 12005KT 10SM CLR 25/14 A3018 RMK AO2 SLP220 T02500139
Loading
Personal Weather Stations






























Interactive Weather Map
Tropical Storm Tracking
New forecast layout! Learn more

10-Day Weather Forecast

Advertisements
Track Severe Weather on mobile